sensor_id;sensor_type;location;lat;lon;timestamp;pressure;altitude;pressure_sealevel;temperature;humidity
30967;BME280;17649;51.836;8.330;2022-12-18T00:08:32;102329.03;;;-9.71;100.00
30967;BME280;17649;51.836;8.330;2022-12-18T00:11:50;102349.72;;;-9.44;100.00
30967;BME280;17649;51.836;8.330;2022-12-18T00:15:18;102349.63;;;-9.45;100.00
30967;BME280;17649;51.836;8.330;2022-12-18T00:18:39;102360.03;;;-9.54;100.00
30967;BME280;17649;51.836;8.330;2022-12-18T00:22:10;102355.63;;;-9.58;100.00
30967;BME280;17649;51.836;8.330;2022-12-18T00:25:58;102361.94;;;-9.50;100.00
30967;BME280;17649;51.836;8.330;2022-12-18T00:29:29;102346.81;;;-9.51;100.00
30967;BME280;17649;51.836;8.330;2022-12-18T00:33:44;102342.56;;;-9.52;100.00
30967;BME280;17649;51.836;8.330;2022-12-18T00:37:30;102357.94;;;-9.46;100.00
30967;BME280;17649;51.836;8.330;2022-12-18T00:41:15;102346.03;;;-9.50;100.00
30967;BME280;17649;51.836;8.330;2022-12-18T00:44:41;102356.06;;;-9.50;100.00
30967;BME280;17649;51.836;8.330;2022-12-18T00:47:47;102367.97;;;-9.46;100.00
30967;BME280;17649;51.836;8.330;2022-12-18T00:50:57;102348.28;;;-9.55;100.00
30967;BME280;17649;51.836;8.330;2022-12-18T00:54:16;102350.00;;;-9.54;100.00
30967;BME280;17649;51.836;8.330;2022-12-18T01:01:06;102351.66;;;-9.69;100.00
30967;BME280;17649;51.836;8.330;2022-12-18T01:04:16;102356.75;;;-9.68;100.00
30967;BME280;17649;51.836;8.330;2022-12-18T01:07:52;102366.13;;;-9.65;100.00
30967;BME280;17649;51.836;8.330;2022-12-18T01:11:13;102342.28;;;-9.73;100.00
30967;BME280;17649;51.836;8.330;2022-12-18T01:14:26;102356.53;;;-9.72;100.00
30967;BME280;17649;51.836;8.330;2022-12-18T01:18:00;102352.25;;;-9.58;100.00
30967;BME280;17649;51.836;8.330;2022-12-18T01:21:15;102334.31;;;-9.66;100.00
30967;BME280;17649;51.836;8.330;2022-12-18T01:28:03;102315.75;;;-9.84;100.00
30967;BME280;17649;51.836;8.330;2022-12-18T01:31:26;102349.84;;;-9.57;100.00
30967;BME280;17649;51.836;8.330;2022-12-18T01:38:50;102347.00;;;-9.63;100.00
30967;BME280;17649;51.836;8.330;2022-12-18T01:42:15;102350.53;;;-9.59;100.00
30967;BME280;17649;51.836;8.330;2022-12-18T01:45:31;102361.50;;;-9.57;100.00
30967;BME280;17649;51.836;8.330;2022-12-18T01:48:32;102369.88;;;-9.57;100.00
30967;BME280;17649;51.836;8.330;2022-12-18T01:51:34;102360.41;;;-9.63;100.00
30967;BME280;17649;51.836;8.330;2022-12-18T01:54:39;102357.13;;;-9.62;100.00
30967;BME280;17649;51.836;8.330;2022-12-18T01:57:46;102351.25;;;-9.62;100.00
30967;BME280;17649;51.836;8.330;2022-12-18T02:00:51;102347.47;;;-9.85;100.00
30967;BME280;17649;51.836;8.330;2022-12-18T02:03:53;102344.53;;;-9.78;100.00
30967;BME280;17649;51.836;8.330;2022-12-18T02:11:08;102354.00;;;-9.72;100.00
30967;BME280;17649;51.836;8.330;2022-12-18T02:26:25;102359.13;;;-9.40;100.00
30967;BME280;17649;51.836;8.330;2022-12-18T02:29:59;102360.81;;;-9.55;100.00
30967;BME280;17649;51.836;8.330;2022-12-18T02:33:33;102316.72;;;-9.82;100.00
30967;BME280;17649;51.836;8.330;2022-12-18T02:36:49;102329.66;;;-9.75;100.00
30967;BME280;17649;51.836;8.330;2022-12-18T02:40:03;102337.34;;;-9.72;100.00
30967;BME280;17649;51.836;8.330;2022-12-18T02:43:19;102329.81;;;-9.72;100.00
30967;BME280;17649;51.836;8.330;2022-12-18T02:47:00;102320.50;;;-9.74;100.00
30967;BME280;17649;51.836;8.330;2022-12-18T02:57:53;102346.06;;;-9.65;100.00
30967;BME280;17649;51.836;8.330;2022-12-18T03:05:41;102307.59;;;-9.97;100.00
30967;BME280;17649;51.836;8.330;2022-12-18T03:09:32;102341.09;;;-9.80;100.00
30967;BME280;17649;51.836;8.330;2022-12-18T03:12:52;102330.34;;;-9.63;100.00
30967;BME280;17649;51.836;8.330;2022-12-18T03:16:02;102313.44;;;-9.81;100.00
30967;BME280;17649;51.836;8.330;2022-12-18T03:19:11;102325.69;;;-9.71;100.00
30967;BME280;17649;51.836;8.330;2022-12-18T03:26:29;102354.75;;;-9.89;100.00
30967;BME280;17649;51.836;8.330;2022-12-18T03:30:07;102343.06;;;-9.74;100.00
30967;BME280;17649;51.836;8.330;2022-12-18T03:33:30;102357.31;;;-9.73;100.00
30967;BME280;17649;51.836;8.330;2022-12-18T03:44:20;102339.53;;;-9.93;100.00
30967;BME280;17649;51.836;8.330;2022-12-18T03:48:03;102346.97;;;-9.79;100.00
30967;BME280;17649;51.836;8.330;2022-12-18T03:54:39;102352.56;;;-9.83;100.00
30967;BME280;17649;51.836;8.330;2022-12-18T03:58:01;102341.50;;;-9.87;100.00
30967;BME280;17649;51.836;8.330;2022-12-18T04:01:30;102316.41;;;-10.18;100.00
30967;BME280;17649;51.836;8.330;2022-12-18T04:04:49;102333.94;;;-10.03;100.00
30967;BME280;17649;51.836;8.330;2022-12-18T04:07:56;102332.53;;;-9.83;100.00
30967;BME280;17649;51.836;8.330;2022-12-18T04:11:03;102335.38;;;-9.77;100.00
30967;BME280;17649;51.836;8.330;2022-12-18T04:14:07;102334.50;;;-9.78;100.00
30967;BME280;17649;51.836;8.330;2022-12-18T04:17:18;102341.56;;;-9.71;100.00
30967;BME280;17649;51.836;8.330;2022-12-18T04:20:27;102347.44;;;-9.70;100.00
30967;BME280;17649;51.836;8.330;2022-12-18T04:23:42;102334.53;;;-9.93;100.00
30967;BME280;17649;51.836;8.330;2022-12-18T04:26:48;102345.56;;;-9.89;100.00
30967;BME280;17649;51.836;8.330;2022-12-18T04:29:54;102335.75;;;-10.01;100.00
30967;BME280;17649;51.836;8.330;2022-12-18T04:33:02;102340.31;;;-9.94;100.00
30967;BME280;17649;51.836;8.330;2022-12-18T04:36:19;102348.09;;;-9.89;100.00
30967;BME280;17649;51.836;8.330;2022-12-18T04:39:53;102354.19;;;-9.84;100.00
30967;BME280;17649;51.836;8.330;2022-12-18T04:43:04;102325.72;;;-10.01;100.00
30967;BME280;17649;51.836;8.330;2022-12-18T04:46:14;102335.50;;;-10.05;100.00
30967;BME280;17649;51.836;8.330;2022-12-18T04:49:20;102347.31;;;-10.03;100.00
30967;BME280;17649;51.836;8.330;2022-12-18T04:52:24;102346.63;;;-10.00;100.00
30967;BME280;17649;51.836;8.330;2022-12-18T04:55:29;102310.34;;;-10.23;100.00
30967;BME280;17649;51.836;8.330;2022-12-18T04:58:32;102335.50;;;-10.05;100.00
30967;BME280;17649;51.836;8.330;2022-12-18T05:01:43;102331.59;;;-10.00;100.00
30967;BME280;17649;51.836;8.330;2022-12-18T05:04:47;102313.91;;;-10.18;100.00
30967;BME280;17649;51.836;8.330;2022-12-18T05:07:55;102334.97;;;-10.00;100.00
30967;BME280;17649;51.836;8.330;2022-12-18T05:11:13;102331.19;;;-10.08;100.00
30967;BME280;17649;51.836;8.330;2022-12-18T05:14:22;102328.34;;;-10.29;100.00
30967;BME280;17649;51.836;8.330;2022-12-18T05:17:28;102312.47;;;-10.29;100.00
30967;BME280;17649;51.836;8.330;2022-12-18T05:20:34;102304.19;;;-10.28;100.00
30967;BME280;17649;51.836;8.330;2022-12-18T05:23:49;102332.75;;;-10.10;100.00
30967;BME280;17649;51.836;8.330;2022-12-18T05:27:11;102331.59;;;-10.15;100.00
30967;BME280;17649;51.836;8.330;2022-12-18T05:30:34;102334.81;;;-10.17;100.00
30967;BME280;17649;51.836;8.330;2022-12-18T05:33:49;102338.00;;;-10.05;100.00
30967;BME280;17649;51.836;8.330;2022-12-18T05:36:53;102333.84;;;-10.05;100.00
30967;BME280;17649;51.836;8.330;2022-12-18T05:39:58;102328.38;;;-9.98;100.00
30967;BME280;17649;51.836;8.330;2022-12-18T05:43:18;102333.50;;;-9.96;100.00
30967;BME280;17649;51.836;8.330;2022-12-18T05:46:31;102335.91;;;-9.98;100.00
30967;BME280;17649;51.836;8.330;2022-12-18T05:49:41;102337.13;;;-9.91;100.00
30967;BME280;17649;51.836;8.330;2022-12-18T05:52:47;102318.38;;;-9.98;100.00
30967;BME280;17649;51.836;8.330;2022-12-18T05:55:53;102315.13;;;-9.97;100.00
30967;BME280;17649;51.836;8.330;2022-12-18T05:58:54;102328.28;;;-9.84;100.00
30967;BME280;17649;51.836;8.330;2022-12-18T06:05:40;102336.06;;;-9.80;100.00
30967;BME280;17649;51.836;8.330;2022-12-18T06:08:43;102332.09;;;-9.76;100.00
30967;BME280;17649;51.836;8.330;2022-12-18T06:11:44;102338.19;;;-9.71;100.00
30967;BME280;17649;51.836;8.330;2022-12-18T06:14:46;102310.16;;;-9.80;100.00
30967;BME280;17649;51.836;8.330;2022-12-18T06:17:47;102338.25;;;-9.55;100.00
30967;BME280;17649;51.836;8.330;2022-12-18T06:20:58;102340.59;;;-9.58;100.00
30967;BME280;17649;51.836;8.330;2022-12-18T06:24:02;102343.72;;;-9.62;100.00
30967;BME280;17649;51.836;8.330;2022-12-18T06:27:04;102344.31;;;-9.51;100.00
30967;BME280;17649;51.836;8.330;2022-12-18T06:30:08;102336.53;;;-9.56;100.00
30967;BME280;17649;51.836;8.330;2022-12-18T06:33:11;102348.13;;;-9.58;100.00
30967;BME280;17649;51.836;8.330;2022-12-18T06:36:12;102339.97;;;-9.54;100.00
30967;BME280;17649;51.836;8.330;2022-12-18T06:39:13;102354.16;;;-9.54;100.00
30967;BME280;17649;51.836;8.330;2022-12-18T06:42:14;102351.72;;;-9.53;100.00
30967;BME280;17649;51.836;8.330;2022-12-18T06:45:18;102365.53;;;-9.45;100.00
30967;BME280;17649;51.836;8.330;2022-12-18T06:48:20;102371.41;;;-9.44;100.00
30967;BME280;17649;51.836;8.330;2022-12-18T06:51:24;102385.28;;;-9.51;100.00
30967;BME280;17649;51.836;8.330;2022-12-18T06:54:25;102364.53;;;-9.48;100.00
30967;BME280;17649;51.836;8.330;2022-12-18T06:57:29;102366.47;;;-9.43;100.00
30967;BME280;17649;51.836;8.330;2022-12-18T07:00:33;102378.84;;;-9.46;100.00
30967;BME280;17649;51.836;8.330;2022-12-18T07:03:34;102370.28;;;-9.35;100.00
30967;BME280;17649;51.836;8.330;2022-12-18T07:06:35;102366.63;;;-9.40;100.00
30967;BME280;17649;51.836;8.330;2022-12-18T07:09:36;102361.03;;;-9.36;100.00
30967;BME280;17649;51.836;8.330;2022-12-18T07:12:37;102359.47;;;-9.34;100.00
30967;BME280;17649;51.836;8.330;2022-12-18T07:15:38;102354.59;;;-9.30;100.00
30967;BME280;17649;51.836;8.330;2022-12-18T07:18:42;102368.78;;;-9.31;100.00
30967;BME280;17649;51.836;8.330;2022-12-18T07:21:43;102364.72;;;-9.29;100.00
30967;BME280;17649;51.836;8.330;2022-12-18T07:24:45;102366.50;;;-9.26;100.00
30967;BME280;17649;51.836;8.330;2022-12-18T07:27:46;102367.38;;;-9.26;100.00
30967;BME280;17649;51.836;8.330;2022-12-18T07:30:46;102357.69;;;-9.20;100.00
30967;BME280;17649;51.836;8.330;2022-12-18T07:33:49;102344.97;;;-9.23;100.00
30967;BME280;17649;51.836;8.330;2022-12-18T07:36:52;102349.47;;;-9.17;100.00
30967;BME280;17649;51.836;8.330;2022-12-18T07:40:02;102353.06;;;-9.12;100.00
30967;BME280;17649;51.836;8.330;2022-12-18T07:43:11;102360.38;;;-9.00;100.00
30967;BME280;17649;51.836;8.330;2022-12-18T07:46:21;102376.59;;;-8.94;100.00
30967;BME280;17649;51.836;8.330;2022-12-18T07:49:34;102369.84;;;-8.79;100.00
30967;BME280;17649;51.836;8.330;2022-12-18T07:52:41;102365.63;;;-8.80;100.00
30967;BME280;17649;51.836;8.330;2022-12-18T07:55:47;102347.44;;;-8.76;100.00
30967;BME280;17649;51.836;8.330;2022-12-18T07:58:56;102367.09;;;-8.51;100.00
30967;BME280;17649;51.836;8.330;2022-12-18T08:02:03;102341.44;;;-8.45;100.00
30967;BME280;17649;51.836;8.330;2022-12-18T08:05:26;102356.22;;;-7.99;100.00
30967;BME280;17649;51.836;8.330;2022-12-18T08:08:57;102356.94;;;-7.66;100.00
30967;BME280;17649;51.836;8.330;2022-12-18T08:12:09;102359.47;;;-7.29;100.00
30967;BME280;17649;51.836;8.330;2022-12-18T08:22:46;102341.16;;;-6.28;100.00
30967;BME280;17649;51.836;8.330;2022-12-18T08:26:26;102337.06;;;-6.06;100.00
30967;BME280;17649;51.836;8.330;2022-12-18T08:33:09;102319.84;;;-5.73;100.00
30967;BME280;17649;51.836;8.330;2022-12-18T08:44:25;102335.09;;;-5.25;100.00
30967;BME280;17649;51.836;8.330;2022-12-18T08:52:22;102330.03;;;-5.02;100.00
30967;BME280;17649;51.836;8.330;2022-12-18T08:56:53;102333.91;;;-4.88;100.00
30967;BME280;17649;51.836;8.330;2022-12-18T09:00:20;102303.91;;;-4.79;100.00
30967;BME280;17649;51.836;8.330;2022-12-18T09:15:14;102322.19;;;-3.84;100.00
30967;BME280;17649;51.836;8.330;2022-12-18T09:26:52;102300.84;;;-3.37;100.00
30967;BME280;17649;51.836;8.330;2022-12-18T09:30:26;102298.25;;;-3.39;100.00
30967;BME280;17649;51.836;8.330;2022-12-18T09:33:39;102312.06;;;-3.27;100.00
30967;BME280;17649;51.836;8.330;2022-12-18T09:37:02;102291.56;;;-3.37;100.00
30967;BME280;17649;51.836;8.330;2022-12-18T09:40:12;102311.31;;;-3.25;100.00
30967;BME280;17649;51.836;8.330;2022-12-18T09:43:37;102312.41;;;-3.15;100.00
30967;BME280;17649;51.836;8.330;2022-12-18T09:46:55;102311.97;;;-3.01;100.00
30967;BME280;17649;51.836;8.330;2022-12-18T09:54:12;102313.91;;;-2.92;100.00
30967;BME280;17649;51.836;8.330;2022-12-18T09:57:28;102316.69;;;-2.83;100.00
30967;BME280;17649;51.836;8.330;2022-12-18T10:00:45;102320.31;;;-2.73;100.00
30967;BME280;17649;51.836;8.330;2022-12-18T10:03:57;102300.84;;;-2.76;100.00
30967;BME280;17649;51.836;8.330;2022-12-18T10:07:12;102292.34;;;-2.78;100.00
30967;BME280;17649;51.836;8.330;2022-12-18T10:18:00;102296.34;;;-2.20;100.00
30967;BME280;17649;51.836;8.330;2022-12-18T10:21:30;102270.47;;;-2.05;100.00
30967;BME280;17649;51.836;8.330;2022-12-18T10:25:16;102277.94;;;-1.73;100.00
30967;BME280;17649;51.836;8.330;2022-12-18T10:28:29;102244.22;;;-1.68;100.00
30967;BME280;17649;51.836;8.330;2022-12-18T10:31:52;102243.22;;;-1.34;100.00
30967;BME280;17649;51.836;8.330;2022-12-18T10:35:32;102235.19;;;-1.10;100.00
30967;BME280;17649;51.836;8.330;2022-12-18T10:39:25;102232.41;;;-0.75;100.00
30967;BME280;17649;51.836;8.330;2022-12-18T10:42:37;102238.56;;;-0.64;100.00
30967;BME280;17649;51.836;8.330;2022-12-18T10:45:41;102227.06;;;-0.41;100.00
30967;BME280;17649;51.836;8.330;2022-12-18T10:52:25;102188.38;;;-0.18;100.00
30967;BME280;17649;51.836;8.330;2022-12-18T10:55:44;102206.56;;;0.06;100.00
30967;BME280;17649;51.836;8.330;2022-12-18T10:59:09;102214.25;;;0.12;100.00
30967;BME280;17649;51.836;8.330;2022-12-18T11:02:35;102191.66;;;0.35;100.00
30967;BME280;17649;51.836;8.330;2022-12-18T11:05:36;102179.22;;;0.61;100.00
30967;BME280;17649;51.836;8.330;2022-12-18T11:08:41;102164.72;;;0.57;100.00
30967;BME280;17649;51.836;8.330;2022-12-18T11:11:48;102157.31;;;0.81;100.00
30967;BME280;17649;51.836;8.330;2022-12-18T11:14:53;102148.88;;;0.85;100.00
30967;BME280;17649;51.836;8.330;2022-12-18T11:17:56;102135.94;;;0.67;100.00
30967;BME280;17649;51.836;8.330;2022-12-18T11:24:03;102124.34;;;0.98;100.00
30967;BME280;17649;51.836;8.330;2022-12-18T11:27:16;102144.22;;;1.40;100.00
30967;BME280;17649;51.836;8.330;2022-12-18T11:33:22;102126.53;;;1.65;100.00
30967;BME280;17649;51.836;8.330;2022-12-18T11:40:32;102116.34;;;1.69;100.00
30967;BME280;17649;51.836;8.330;2022-12-18T12:13:45;102046.47;;;1.46;100.00
30967;BME280;17649;51.836;8.330;2022-12-18T12:30:14;102046.28;;;1.12;100.00
30967;BME280;17649;51.836;8.330;2022-12-18T12:33:31;102039.47;;;1.11;100.00
30967;BME280;17649;51.836;8.330;2022-12-18T12:40:24;102025.88;;;1.12;100.00
30967;BME280;17649;51.836;8.330;2022-12-18T12:43:42;102041.28;;;1.29;100.00
30967;BME280;17649;51.836;8.330;2022-12-18T12:46:47;102040.31;;;1.09;100.00
30967;BME280;17649;51.836;8.330;2022-12-18T12:49:57;102030.97;;;1.09;100.00
30967;BME280;17649;51.836;8.330;2022-12-18T12:53:01;102052.09;;;0.95;100.00
30967;BME280;17649;51.836;8.330;2022-12-18T12:56:11;102047.09;;;1.07;100.00
30967;BME280;17649;51.836;8.330;2022-12-18T13:03:06;102008.00;;;1.08;100.00
30967;BME280;17649;51.836;8.330;2022-12-18T13:06:37;101996.91;;;0.98;100.00
30967;BME280;17649;51.836;8.330;2022-12-18T13:13:13;101962.59;;;0.52;100.00
30967;BME280;17649;51.836;8.330;2022-12-18T13:16:19;101989.03;;;0.68;100.00
30967;BME280;17649;51.836;8.330;2022-12-18T13:19:25;101988.31;;;0.84;100.00
30967;BME280;17649;51.836;8.330;2022-12-18T13:22:49;101972.81;;;0.58;100.00
30967;BME280;17649;51.836;8.330;2022-12-18T13:25:55;101967.78;;;0.64;100.00
30967;BME280;17649;51.836;8.330;2022-12-18T13:28:58;101960.03;;;0.49;100.00
30967;BME280;17649;51.836;8.330;2022-12-18T13:32:00;101954.13;;;0.56;100.00
30967;BME280;17649;51.836;8.330;2022-12-18T13:41:26;101966.13;;;0.71;100.00
30967;BME280;17649;51.836;8.330;2022-12-18T13:44:58;101960.06;;;0.53;100.00
30967;BME280;17649;51.836;8.330;2022-12-18T13:48:02;101960.88;;;0.49;100.00
30967;BME280;17649;51.836;8.330;2022-12-18T13:51:09;101955.00;;;0.59;100.00
30967;BME280;17649;51.836;8.330;2022-12-18T14:00:41;101945.53;;;0.43;100.00
30967;BME280;17649;51.836;8.330;2022-12-18T14:03:42;101949.84;;;0.46;100.00
30967;BME280;17649;51.836;8.330;2022-12-18T14:06:47;101943.91;;;0.47;100.00
30967;BME280;17649;51.836;8.330;2022-12-18T14:10:14;101943.88;;;0.45;100.00
30967;BME280;17649;51.836;8.330;2022-12-18T14:13:29;101948.19;;;0.55;100.00
30967;BME280;17649;51.836;8.330;2022-12-18T14:16:31;101941.38;;;0.48;100.00
30967;BME280;17649;51.836;8.330;2022-12-18T14:19:38;101955.78;;;0.48;100.00
30967;BME280;17649;51.836;8.330;2022-12-18T14:22:49;101954.03;;;0.44;100.00
30967;BME280;17649;51.836;8.330;2022-12-18T14:25:50;101931.94;;;0.41;100.00
30967;BME280;17649;51.836;8.330;2022-12-18T14:29:17;101928.56;;;0.41;100.00
30967;BME280;17649;51.836;8.330;2022-12-18T14:32:16;101946.38;;;0.41;100.00
30967;BME280;17649;51.836;8.330;2022-12-18T14:35:21;101949.75;;;0.38;100.00
30967;BME280;17649;51.836;8.330;2022-12-18T15:51:46;101847.66;;;0.02;100.00
30967;BME280;17649;51.836;8.330;2022-12-18T15:55:02;101824.56;;;-0.21;100.00
30967;BME280;17649;51.836;8.330;2022-12-18T15:58:40;101815.25;;;-0.19;100.00
30967;BME280;17649;51.836;8.330;2022-12-18T16:05:36;101843.38;;;-0.01;100.00
30967;BME280;17649;51.836;8.330;2022-12-18T16:17:17;101816.22;;;-0.05;100.00
30967;BME280;17649;51.836;8.330;2022-12-18T16:20:55;101811.97;;;-0.03;100.00
30967;BME280;17649;51.836;8.330;2022-12-18T16:32:00;101801.97;;;0.17;100.00
30967;BME280;17649;51.836;8.330;2022-12-18T16:39:26;101766.13;;;-0.12;100.00
30967;BME280;17649;51.836;8.330;2022-12-18T16:43:11;101793.31;;;-0.02;100.00
30967;BME280;17649;51.836;8.330;2022-12-18T16:47:36;101789.06;;;-0.05;100.00
30967;BME280;17649;51.836;8.330;2022-12-18T17:12:29;101780.59;;;-0.05;100.00
30967;BME280;17649;51.836;8.330;2022-12-18T17:16:59;101772.97;;;-0.02;100.00
30967;BME280;17649;51.836;8.330;2022-12-18T17:25:25;101772.84;;;-0.17;100.00
30967;BME280;17649;51.836;8.330;2022-12-18T17:28:52;101773.59;;;-0.32;100.00
30967;BME280;17649;51.836;8.330;2022-12-18T17:31:58;101759.88;;;-0.51;100.00
30967;BME280;17649;51.836;8.330;2022-12-18T17:34:58;101776.94;;;-0.38;100.00
30967;BME280;17649;51.836;8.330;2022-12-18T17:37:59;101774.44;;;-0.32;100.00
30967;BME280;17649;51.836;8.330;2022-12-18T17:41:02;101759.97;;;-0.43;100.00
30967;BME280;17649;51.836;8.330;2022-12-18T17:44:07;101771.78;;;-0.47;100.00
30967;BME280;17649;51.836;8.330;2022-12-18T17:47:14;101760.69;;;-0.55;100.00
30967;BME280;17649;51.836;8.330;2022-12-18T17:50:15;101734.31;;;-0.68;100.00
30967;BME280;17649;51.836;8.330;2022-12-18T17:53:16;101753.03;;;-0.59;100.00
30967;BME280;17649;51.836;8.330;2022-12-18T17:56:22;101733.56;;;-0.59;100.00
30967;BME280;17649;51.836;8.330;2022-12-18T17:59:23;101752.13;;;-0.63;100.00
30967;BME280;17649;51.836;8.330;2022-12-18T18:02:24;101774.22;;;-0.59;100.00
30967;BME280;17649;51.836;8.330;2022-12-18T18:05:24;101752.81;;;-0.82;100.00
30967;BME280;17649;51.836;8.330;2022-12-18T18:08:26;101769.16;;;-0.56;100.00
30967;BME280;17649;51.836;8.330;2022-12-18T18:11:27;101756.25;;;-0.76;100.00
30967;BME280;17649;51.836;8.330;2022-12-18T18:14:46;101764.09;;;-0.53;100.00
30967;BME280;17649;51.836;8.330;2022-12-18T18:17:49;101770.91;;;-0.49;100.00
30967;BME280;17649;51.836;8.330;2022-12-18T18:20:52;101766.78;;;-0.36;100.00
30967;BME280;17649;51.836;8.330;2022-12-18T18:23:53;101765.09;;;-0.36;100.00
30967;BME280;17649;51.836;8.330;2022-12-18T18:27:15;101768.56;;;-0.27;100.00
30967;BME280;17649;51.836;8.330;2022-12-18T18:30:16;101765.09;;;-0.33;100.00
30967;BME280;17649;51.836;8.330;2022-12-18T18:33:16;101766.69;;;-0.48;100.00
30967;BME280;17649;51.836;8.330;2022-12-18T18:36:20;101740.50;;;-0.38;100.00
30967;BME280;17649;51.836;8.330;2022-12-18T18:39:21;101735.41;;;-0.40;100.00
30967;BME280;17649;51.836;8.330;2022-12-18T18:42:36;101744.75;;;-0.36;100.00
30967;BME280;17649;51.836;8.330;2022-12-18T18:45:39;101740.50;;;-0.35;100.00
30967;BME280;17649;51.836;8.330;2022-12-18T18:48:46;101741.38;;;-0.30;100.00
30967;BME280;17649;51.836;8.330;2022-12-18T18:51:49;101751.53;;;-0.33;100.00
30967;BME280;17649;51.836;8.330;2022-12-18T18:54:59;101752.28;;;-0.45;100.00
30967;BME280;17649;51.836;8.330;2022-12-18T18:58:06;101754.16;;;-0.27;100.00
30967;BME280;17649;51.836;8.330;2022-12-18T19:01:09;101754.19;;;-0.19;100.00
30967;BME280;17649;51.836;8.330;2022-12-18T19:04:17;101749.16;;;-0.13;100.00
30967;BME280;17649;51.836;8.330;2022-12-18T19:07:20;101721.03;;;-0.32;100.00
30967;BME280;17649;51.836;8.330;2022-12-18T19:10:23;101751.50;;;-0.38;100.00
30967;BME280;17649;51.836;8.330;2022-12-18T19:13:28;101770.13;;;-0.43;100.00
30967;BME280;17649;51.836;8.330;2022-12-18T19:16:34;101753.06;;;-0.55;100.00
30967;BME280;17649;51.836;8.330;2022-12-18T19:19:44;101749.69;;;-0.54;100.00
30967;BME280;17649;51.836;8.330;2022-12-18T19:22:51;101776.09;;;-0.37;100.00
30967;BME280;17649;51.836;8.330;2022-12-18T19:25:58;101778.75;;;-0.27;100.00
30967;BME280;17649;51.836;8.330;2022-12-18T19:29:04;101781.31;;;-0.20;100.00
30967;BME280;17649;51.836;8.330;2022-12-18T19:32:13;101765.00;;;-0.46;100.00
30967;BME280;17649;51.836;8.330;2022-12-18T19:35:43;101806.66;;;-0.31;100.00
30967;BME280;17649;51.836;8.330;2022-12-18T19:38:56;101776.94;;;-0.39;100.00
30967;BME280;17649;51.836;8.330;2022-12-18T19:41:57;101790.38;;;-0.52;100.00
30967;BME280;17649;51.836;8.330;2022-12-18T19:45:11;101788.69;;;-0.52;100.00
30967;BME280;17649;51.836;8.330;2022-12-18T19:48:14;101783.59;;;-0.55;100.00
30967;BME280;17649;51.836;8.330;2022-12-18T19:51:46;101804.16;;;-0.29;100.00
30967;BME280;17649;51.836;8.330;2022-12-18T19:54:49;101787.97;;;-0.39;100.00
30967;BME280;17649;51.836;8.330;2022-12-18T19:57:53;101805.00;;;-0.28;100.00
30967;BME280;17649;51.836;8.330;2022-12-18T20:00:57;101805.81;;;-0.31;100.00
30967;BME280;17649;51.836;8.330;2022-12-18T20:04:06;101795.63;;;-0.31;100.00
30967;BME280;17649;51.836;8.330;2022-12-18T20:07:09;101778.66;;;-0.35;100.00
30967;BME280;17649;51.836;8.330;2022-12-18T20:10:21;101786.28;;;-0.38;100.00
30967;BME280;17649;51.836;8.330;2022-12-18T20:13:59;101760.69;;;-0.55;100.00
30967;BME280;17649;51.836;8.330;2022-12-18T20:16:59;101792.22;;;-0.36;100.00
30967;BME280;17649;51.836;8.330;2022-12-18T20:19:59;101781.88;;;-0.56;100.00
30967;BME280;17649;51.836;8.330;2022-12-18T20:23:00;101789.53;;;-0.51;100.00
30967;BME280;17649;51.836;8.330;2022-12-18T20:26:01;101781.16;;;-0.44;100.00
30967;BME280;17649;51.836;8.330;2022-12-18T20:29:01;101794.63;;;-0.50;100.00
30967;BME280;17649;51.836;8.330;2022-12-18T20:32:05;101791.34;;;-0.41;100.00
30967;BME280;17649;51.836;8.330;2022-12-18T20:35:06;101791.41;;;-0.31;100.00
30967;BME280;17649;51.836;8.330;2022-12-18T20:38:12;101792.25;;;-0.30;100.00
30967;BME280;17649;51.836;8.330;2022-12-18T20:41:20;101799.06;;;-0.29;100.00
30967;BME280;17649;51.836;8.330;2022-12-18T20:44:25;101799.88;;;-0.32;100.00
30967;BME280;17649;51.836;8.330;2022-12-18T20:47:26;101789.50;;;-0.59;100.00
30967;BME280;17649;51.836;8.330;2022-12-18T20:50:29;101770.78;;;-0.61;100.00
30967;BME280;17649;51.836;8.330;2022-12-18T20:53:36;101787.09;;;-0.44;100.00
30967;BME280;17649;51.836;8.330;2022-12-18T20:56:42;101779.47;;;-0.39;100.00
30967;BME280;17649;51.836;8.330;2022-12-18T20:59:55;101764.19;;;-0.44;100.00
30967;BME280;17649;51.836;8.330;2022-12-18T21:03:02;101764.19;;;-0.44;100.00
30967;BME280;17649;51.836;8.330;2022-12-18T21:06:04;101758.06;;;-0.66;100.00
30967;BME280;17649;51.836;8.330;2022-12-18T21:09:05;101757.25;;;-0.60;100.00
30967;BME280;17649;51.836;8.330;2022-12-18T21:12:13;101754.63;;;-0.71;100.00
30967;BME280;17649;51.836;8.330;2022-12-18T21:15:41;101765.00;;;-0.46;100.00
30967;BME280;17649;51.836;8.330;2022-12-18T21:18:47;101776.09;;;-0.38;100.00
30967;BME280;17649;51.836;8.330;2022-12-18T21:21:48;101777.91;;;-0.23;100.00
30967;BME280;17649;51.836;8.330;2022-12-18T21:24:58;101771.09;;;-0.27;100.00
30967;BME280;17649;51.836;8.330;2022-12-18T21:28:20;101764.22;;;-0.38;100.00
30967;BME280;17649;51.836;8.330;2022-12-18T21:31:39;101786.38;;;-0.24;100.00
30967;BME280;17649;51.836;8.330;2022-12-18T21:34:45;101778.66;;;-0.34;100.00
30967;BME280;17649;51.836;8.330;2022-12-18T21:37:52;101780.34;;;-0.37;100.00
30967;BME280;17649;51.836;8.330;2022-12-18T21:40:53;101777.03;;;-0.28;100.00
30967;BME280;17649;51.836;8.330;2022-12-18T21:44:03;101769.34;;;-0.32;100.00
30967;BME280;17649;51.836;8.330;2022-12-18T21:47:07;101776.34;;;-0.06;100.00
30967;BME280;17649;51.836;8.330;2022-12-18T21:50:14;101773.78;;;-0.09;100.00
30967;BME280;17649;51.836;8.330;2022-12-18T21:53:15;101768.56;;;-0.26;100.00
30967;BME280;17649;51.836;8.330;2022-12-18T21:56:16;101755.84;;;-0.27;100.00
30967;BME280;17649;51.836;8.330;2022-12-18T21:59:37;101766.19;;;-0.03;100.00